Terminal Aerodrome Forecast
Issued by NWS

Home | Current Version | Previous Version | Text Only | Print | Product List | Glossary On
Versions: 1 2 3 4 5 6 7 8 9 10 11 12 13 14 15 16 17 18 19 20 21 22 23 24 25 26 27 28 29
382
FTUS46 KMTR 281514 AAB
TAFMRY
TAF AMD
KMRY 281514Z 2815/2912 32003KT 6SM BR OVC004
      TEMPO 2815/2817 3SM BR OVC003
     FM281800 30004KT 6SM HZ FU FEW002 SCT030
     FM281900 30006KT 6SM HZ FU FEW030
     FM290300 30004KT 5SM BR FU BKN004 OVC007
     FM290900 24003KT 1SM BR FU OVC002=

USA.gov is the U.S. government's official web portal to all federal, state and local government web resources and services.